createdAt,value
2017-01-21T00:00:11.399Z,1008.38
2017-01-21T00:00:51.987Z,1008.4
2017-01-21T00:01:32.578Z,1008.5
2017-01-21T00:02:13.155Z,1008.44
2017-01-21T00:02:53.748Z,1008.42
2017-01-21T00:03:34.338Z,1008.45
2017-01-21T00:04:14.923Z,1008.4
2017-01-21T00:04:55.520Z,1008.41
2017-01-21T00:05:36.107Z,1008.43
2017-01-21T00:06:16.697Z,1008.41
2017-01-21T00:06:57.290Z,1008.4
2017-01-21T00:07:37.871Z,1008.41
2017-01-21T00:08:18.448Z,1008.38
2017-01-21T00:08:59.036Z,1008.38
2017-01-21T00:09:39.620Z,1008.33
2017-01-21T00:10:20.197Z,1008.32
2017-01-21T00:11:00.775Z,1008.34
2017-01-21T00:11:41.372Z,1008.34
2017-01-21T00:12:21.966Z,1008.3
2017-01-21T00:13:02.576Z,1008.32
2017-01-21T00:13:43.165Z,1008.34
2017-01-21T00:14:23.746Z,1008.33
2017-01-21T00:15:04.337Z,1008.24
2017-01-21T00:15:44.931Z,1008.37
2017-01-21T00:16:25.512Z,1008.27
2017-01-21T00:17:06.108Z,1008.27
2017-01-21T00:17:46.701Z,1008.28
2017-01-21T00:18:27.297Z,1008.27
2017-01-21T00:19:07.891Z,1008.29
2017-01-21T00:19:48.476Z,1008.19
2017-01-21T00:20:29.073Z,1008.18
2017-01-21T00:21:09.653Z,1008.17
2017-01-21T00:21:50.241Z,1008.12
2017-01-21T00:22:30.838Z,1008.12
2017-01-21T00:23:11.424Z,1008.2
2017-01-21T00:23:52.012Z,1008.14
2017-01-21T00:24:32.604Z,1008.19
2017-01-21T00:25:13.182Z,1008.14
2017-01-21T00:25:53.761Z,1008.16
2017-01-21T00:26:34.342Z,1008.26
2017-01-21T00:27:14.932Z,1008.23
2017-01-21T00:27:55.509Z,1008.19
2017-01-21T00:28:36.095Z,1008.22
2017-01-21T00:29:16.679Z,1008.27
2017-01-21T00:29:57.258Z,1008.25
2017-01-21T00:30:37.847Z,1008.22
2017-01-21T00:31:18.438Z,1008.13
2017-01-21T00:31:59.033Z,1008.2
2017-01-21T00:32:39.632Z,1008.19
2017-01-21T00:33:20.223Z,1008.25
2017-01-21T00:34:00.809Z,1008.2
2017-01-21T00:34:41.393Z,1008.27
2017-01-21T00:35:21.977Z,1008.15
2017-01-21T00:36:02.560Z,1008.14
2017-01-21T00:36:43.150Z,1008.17
2017-01-21T00:37:23.734Z,1008.17
2017-01-21T00:38:04.311Z,1008.22
2017-01-21T00:38:44.898Z,1008.21
2017-01-21T00:39:25.474Z,1008.26
2017-01-21T00:40:06.050Z,1008.16
2017-01-21T00:40:46.635Z,1008.2
2017-01-21T00:41:27.211Z,1008.22
2017-01-21T00:42:07.801Z,1008.21
2017-01-21T00:42:48.396Z,1008.09
2017-01-21T00:43:28.984Z,1008.17
2017-01-21T00:44:09.569Z,1008.18
2017-01-21T00:44:50.161Z,1008.22
2017-01-21T00:45:30.765Z,1008.16
2017-01-21T00:46:11.358Z,1008.17
2017-01-21T00:46:51.960Z,1008.15
2017-01-21T00:47:32.566Z,1008.19
2017-01-21T00:48:13.142Z,1008.12
2017-01-21T00:48:53.723Z,1008.15
2017-01-21T00:49:34.309Z,1008.1
2017-01-21T00:50:14.914Z,1008.06
2017-01-21T00:50:55.491Z,1008.09
2017-01-21T00:51:36.080Z,1008.02
2017-01-21T00:52:16.682Z,1008.03
2017-01-21T00:52:57.266Z,1008.05
2017-01-21T00:53:37.850Z,1008.06
2017-01-21T00:54:18.449Z,1008.05
2017-01-21T00:54:59.033Z,1008.02
2017-01-21T00:55:39.641Z,1008.03
2017-01-21T00:56:20.238Z,1007.99
2017-01-21T00:57:00.832Z,1007.9
2017-01-21T00:57:41.416Z,1007.9
2017-01-21T00:58:22.022Z,1007.98
2017-01-21T00:59:02.610Z,1007.96
2017-01-21T00:59:43.187Z,1007.89
2017-01-21T01:00:23.781Z,1007.92
2017-01-21T01:01:04.356Z,1007.97
2017-01-21T01:01:44.968Z,1007.93
2017-01-21T01:02:25.557Z,1007.88
2017-01-21T01:03:06.148Z,1007.98
2017-01-21T01:03:46.742Z,1007.97
2017-01-21T01:04:27.340Z,1007.99
2017-01-21T01:05:07.934Z,1007.93
2017-01-21T01:05:48.529Z,1007.99
2017-01-21T01:06:29.114Z,1007.99
2017-01-21T01:07:09.706Z,1007.99
2017-01-21T01:07:50.297Z,1008.08
2017-01-21T01:08:30.887Z,1008.05
2017-01-21T01:09:11.477Z,1007.96
2017-01-21T01:09:52.060Z,1007.97
2017-01-21T01:10:32.651Z,1007.95
2017-01-21T01:11:13.239Z,1007.97
2017-01-21T01:11:53.826Z,1007.9
2017-01-21T01:12:34.415Z,1007.91
2017-01-21T01:13:14.995Z,1007.78
2017-01-21T01:13:55.575Z,1007.89
2017-01-21T01:14:36.157Z,1007.79
2017-01-21T01:15:16.742Z,1007.83
2017-01-21T01:15:57.329Z,1007.89
2017-01-21T01:16:37.923Z,1007.77
2017-01-21T01:17:18.513Z,1007.86
2017-01-21T01:17:59.105Z,1007.83
2017-01-21T01:18:39.704Z,1007.79
2017-01-21T01:19:20.288Z,1007.87
2017-01-21T01:20:00.881Z,1007.83
2017-01-21T01:20:41.466Z,1007.91
2017-01-21T01:21:22.050Z,1007.91
2017-01-21T01:22:02.635Z,1007.8
2017-01-21T01:22:43.226Z,1007.9
2017-01-21T01:23:23.810Z,1007.85
2017-01-21T01:24:04.408Z,1007.79
2017-01-21T01:24:44.999Z,1007.87
2017-01-21T01:25:25.591Z,1007.84
2017-01-21T01:26:06.224Z,1007.86
2017-01-21T01:26:46.810Z,1007.9
2017-01-21T01:27:27.405Z,1007.88
2017-01-21T01:28:07.987Z,1007.89
2017-01-21T01:28:48.584Z,1007.83
2017-01-21T01:29:29.183Z,1007.88
2017-01-21T01:30:09.776Z,1007.82
2017-01-21T01:30:50.375Z,1007.77
2017-01-21T01:31:30.951Z,1007.76
2017-01-21T01:32:11.563Z,1007.86
2017-01-21T01:32:52.144Z,1007.83
2017-01-21T01:33:32.740Z,1007.81
2017-01-21T01:34:13.339Z,1007.84
2017-01-21T01:34:53.925Z,1007.87
2017-01-21T01:35:34.502Z,1007.75
2017-01-21T01:36:15.081Z,1007.82
2017-01-21T01:36:55.671Z,1007.81
2017-01-21T01:37:36.249Z,1007.81
2017-01-21T01:38:16.826Z,1007.84
2017-01-21T01:38:57.405Z,1007.92
2017-01-21T01:39:37.989Z,1007.89
2017-01-21T01:40:18.572Z,1007.79
2017-01-21T01:40:59.157Z,1007.78
2017-01-21T01:41:39.751Z,1007.73
2017-01-21T01:42:20.354Z,1007.71
2017-01-21T01:43:00.940Z,1007.76
2017-01-21T01:43:41.523Z,1007.72
2017-01-21T01:44:22.110Z,1007.74
2017-01-21T01:45:02.707Z,1007.77
2017-01-21T01:45:43.282Z,1007.73
2017-01-21T01:46:23.873Z,1007.66
2017-01-21T01:47:04.478Z,1007.54
2017-01-21T01:47:45.102Z,1007.66
2017-01-21T01:48:25.690Z,1007.66
2017-01-21T01:49:06.281Z,1007.48
2017-01-21T01:49:46.866Z,1007.52
2017-01-21T01:50:27.447Z,1007.58
2017-01-21T01:51:08.042Z,1007.47
2017-01-21T01:51:48.649Z,1007.38
2017-01-21T01:52:29.244Z,1007.49
2017-01-21T01:53:09.853Z,1007.43
2017-01-21T01:53:50.446Z,1007.36
2017-01-21T01:54:31.052Z,1007.43
2017-01-21T01:55:11.640Z,1007.22
2017-01-21T01:55:52.255Z,1007.32
2017-01-21T01:56:32.860Z,1007.2
2017-01-21T01:57:13.450Z,1007.37
2017-01-21T01:57:54.029Z,1007.18
2017-01-21T01:58:34.622Z,1007.18
2017-01-21T01:59:15.208Z,1007.18
2017-01-21T01:59:55.811Z,1007.15
2017-01-21T02:00:36.419Z,1007.2
2017-01-21T02:01:17.020Z,1007.18
2017-01-21T02:01:57.615Z,1007.31
2017-01-21T02:02:38.223Z,1007.28
2017-01-21T02:03:18.828Z,1007.29
2017-01-21T02:03:59.436Z,1007.2
2017-01-21T02:04:40.024Z,1007.33
2017-01-21T02:05:20.633Z,1007.22
2017-01-21T02:06:01.229Z,1007.09
2017-01-21T02:06:41.831Z,1007.17
2017-01-21T02:07:22.423Z,1007.24
2017-01-21T02:08:03.025Z,1007.3
2017-01-21T02:08:43.603Z,1007.15
2017-01-21T02:09:24.186Z,1007.19
2017-01-21T02:10:04.773Z,1007.09
2017-01-21T02:10:45.355Z,1007.17
2017-01-21T02:11:25.943Z,1007.16
2017-01-21T02:12:06.527Z,1007.09
2017-01-21T02:12:47.109Z,1007.27
2017-01-21T02:13:27.690Z,1007.31
2017-01-21T02:14:08.273Z,1007.21
2017-01-21T02:14:48.856Z,1007.18
2017-01-21T02:15:29.458Z,1007.22
2017-01-21T02:16:10.053Z,1007.32
2017-01-21T02:16:50.662Z,1007.3
2017-01-21T02:17:31.265Z,1007.32
2017-01-21T02:18:11.865Z,1007.29
2017-01-21T02:18:52.467Z,1007.28
2017-01-21T02:19:33.062Z,1007.34
2017-01-21T02:20:13.665Z,1007.43
2017-01-21T02:20:54.258Z,1007.42
2017-01-21T02:21:34.855Z,1007.5
2017-01-21T02:22:15.446Z,1007.51
2017-01-21T02:22:56.036Z,1007.49
2017-01-21T02:23:36.623Z,1007.52
2017-01-21T02:24:17.213Z,1007.62
2017-01-21T02:24:57.798Z,1007.68
2017-01-21T02:25:38.378Z,1007.7
2017-01-21T02:26:18.955Z,1007.69
2017-01-21T02:26:59.547Z,1007.75
2017-01-21T02:27:40.141Z,1007.77
2017-01-21T02:28:20.740Z,1007.83
2017-01-21T02:29:01.322Z,1007.73
2017-01-21T02:29:41.929Z,1007.82
2017-01-21T02:30:22.516Z,1007.85
2017-01-21T02:31:03.115Z,1007.84
2017-01-21T02:31:43.730Z,1007.86
2017-01-21T02:32:24.317Z,1007.89
2017-01-21T02:33:04.902Z,1007.85
2017-01-21T02:33:45.481Z,1007.89
2017-01-21T02:34:26.073Z,1007.84
2017-01-21T02:35:06.663Z,1007.83
2017-01-21T02:35:47.253Z,1007.82
2017-01-21T02:36:27.858Z,1007.81
2017-01-21T02:37:08.427Z,1007.82
2017-01-21T02:37:49.030Z,1007.78
2017-01-21T02:38:29.612Z,1007.86
2017-01-21T02:39:10.197Z,1007.88
2017-01-21T02:39:50.793Z,1007.96
2017-01-21T02:40:31.371Z,1007.91
2017-01-21T02:41:11.960Z,1007.93
2017-01-21T02:41:52.549Z,1007.91
2017-01-21T02:42:33.142Z,1007.82
2017-01-21T02:43:13.725Z,1007.79
2017-01-21T02:43:54.308Z,1007.85
2017-01-21T02:44:34.897Z,1007.85
2017-01-21T02:45:15.497Z,1007.84
2017-01-21T02:45:56.078Z,1007.81
2017-01-21T02:46:36.666Z,1007.88
2017-01-21T02:47:17.267Z,1007.9
2017-01-21T02:47:57.858Z,1007.86
2017-01-21T02:48:38.443Z,1007.88
2017-01-21T02:49:19.023Z,1007.89
2017-01-21T02:49:59.624Z,1007.91
2017-01-21T02:50:40.214Z,1007.76
2017-01-21T02:51:20.796Z,1007.81
2017-01-21T02:52:01.392Z,1007.84
2017-01-21T02:52:41.998Z,1007.86
2017-01-21T02:53:22.579Z,1007.81
2017-01-21T02:54:03.172Z,1007.89
2017-01-21T02:54:43.763Z,1007.78
2017-01-21T02:55:24.374Z,1007.86
2017-01-21T02:56:04.971Z,1007.88
2017-01-21T02:56:45.555Z,1007.91
2017-01-21T02:57:26.158Z,1007.94
2017-01-21T02:58:06.744Z,1007.96
2017-01-21T02:58:47.343Z,1007.99
2017-01-21T02:59:27.927Z,1007.84
2017-01-21T03:00:08.519Z,1007.93
2017-01-21T03:00:49.108Z,1007.93
2017-01-21T03:01:29.691Z,1007.88
2017-01-21T03:02:10.271Z,1007.93
2017-01-21T03:02:50.843Z,1007.96
2017-01-21T03:03:31.447Z,1007.93
2017-01-21T03:04:12.027Z,1007.97
2017-01-21T03:04:52.608Z,1007.96
2017-01-21T03:05:33.194Z,1007.97
2017-01-21T03:06:13.790Z,1007.91
2017-01-21T03:06:54.402Z,1007.88
2017-01-21T03:07:34.990Z,1007.81
2017-01-21T03:08:15.589Z,1007.83
2017-01-21T03:08:56.175Z,1007.87
2017-01-21T03:09:36.775Z,1007.95
2017-01-21T03:10:17.363Z,1007.96
2017-01-21T03:10:57.966Z,1007.94
2017-01-21T03:11:38.555Z,1008.01
2017-01-21T03:12:19.151Z,1007.94
2017-01-21T03:12:59.730Z,1007.91
2017-01-21T03:13:40.316Z,1007.97
2017-01-21T03:14:20.915Z,1007.94
2017-01-21T03:15:01.512Z,1007.93
2017-01-21T03:15:42.100Z,1007.91
2017-01-21T03:16:22.683Z,1007.91
2017-01-21T03:17:03.265Z,1007.96
2017-01-21T03:17:43.875Z,1007.88
2017-01-21T03:18:24.477Z,1007.83
2017-01-21T03:19:05.086Z,1007.86
2017-01-21T03:19:45.667Z,1007.89
2017-01-21T03:20:26.272Z,1007.81
2017-01-21T03:21:06.880Z,1007.83
2017-01-21T03:21:47.476Z,1007.82
2017-01-21T03:22:28.081Z,1007.71
2017-01-21T03:23:08.680Z,1007.59
2017-01-21T03:23:49.263Z,1007.66
2017-01-21T03:24:29.860Z,1007.68
2017-01-21T03:25:10.443Z,1007.65
2017-01-21T03:25:51.038Z,1007.62
2017-01-21T03:26:31.624Z,1007.66
2017-01-21T03:27:12.214Z,1007.57
2017-01-21T03:27:52.796Z,1007.66
2017-01-21T03:28:33.383Z,1007.48
2017-01-21T03:29:13.964Z,1007.67
2017-01-21T03:29:54.546Z,1007.63
2017-01-21T03:30:35.141Z,1007.57
2017-01-21T03:31:15.715Z,1007.64
2017-01-21T03:31:56.299Z,1007.57
2017-01-21T03:32:36.888Z,1007.5
2017-01-21T03:33:17.474Z,1007.37
2017-01-21T03:33:58.061Z,1007.51
2017-01-21T03:34:38.650Z,1007.49
2017-01-21T03:35:19.234Z,1007.53
2017-01-21T03:35:59.820Z,1007.5
2017-01-21T03:36:40.412Z,1007.49
2017-01-21T03:37:21.017Z,1007.54
2017-01-21T03:38:01.609Z,1007.43
2017-01-21T03:38:42.187Z,1007.29
2017-01-21T03:39:22.768Z,1007.44
2017-01-21T03:40:03.356Z,1007.45
2017-01-21T03:40:43.929Z,1007.33
2017-01-21T03:41:24.525Z,1007.22
2017-01-21T03:42:05.922Z,1007.22
2017-01-21T03:42:45.676Z,1007.27
2017-01-21T03:43:26.272Z,1007.24
2017-01-21T03:44:06.846Z,1007.26
2017-01-21T03:44:47.433Z,1007.36
2017-01-21T03:45:28.027Z,1007.19
2017-01-21T03:46:08.607Z,1007.14
2017-01-21T03:46:49.187Z,1007.28
2017-01-21T03:47:29.771Z,1007.35
2017-01-21T03:48:10.350Z,1007.24
2017-01-21T03:48:50.944Z,1007.01
2017-01-21T03:49:31.531Z,1007.28
2017-01-21T03:50:12.117Z,1007.09
2017-01-21T03:50:52.697Z,1007.17
2017-01-21T03:51:33.287Z,1007.08
2017-01-21T03:52:13.883Z,1007.29
2017-01-21T03:52:54.477Z,1007.17
2017-01-21T03:53:35.071Z,1007.34
2017-01-21T03:54:15.648Z,1007.36
2017-01-21T03:54:56.238Z,1007.33
2017-01-21T03:55:36.825Z,1007.34
2017-01-21T03:56:17.403Z,1007.35
2017-01-21T03:56:57.994Z,1007.36
2017-01-21T03:57:38.574Z,1007.2
2017-01-21T03:58:19.168Z,1007.23
2017-01-21T03:58:59.739Z,1007.24
2017-01-21T03:59:40.331Z,1007.21
2017-01-21T04:00:20.922Z,1007.27
2017-01-21T04:01:01.501Z,1007.3
2017-01-21T04:01:42.108Z,1007.26
2017-01-21T04:02:22.686Z,1007.24
2017-01-21T04:03:03.264Z,1007.19
2017-01-21T04:03:43.841Z,1007.12
2017-01-21T04:04:24.438Z,1007.17
2017-01-21T04:05:05.023Z,1007.16
2017-01-21T04:05:45.626Z,1007.2
2017-01-21T04:06:26.213Z,1006.98
2017-01-21T04:07:06.799Z,1007.13
2017-01-21T04:07:47.385Z,1007.06
2017-01-21T04:08:27.969Z,1007.06
2017-01-21T04:09:08.569Z,1007.01
2017-01-21T04:09:49.180Z,1006.93
2017-01-21T04:10:29.777Z,1006.99
2017-01-21T04:11:10.360Z,1007.06
2017-01-21T04:11:50.952Z,1007.03
2017-01-21T04:12:31.533Z,1006.98
2017-01-21T04:13:12.123Z,1007.02
2017-01-21T04:13:52.694Z,1006.98
2017-01-21T04:14:33.286Z,1006.89
2017-01-21T04:15:13.883Z,1006.87
2017-01-21T04:15:54.475Z,1006.77
2017-01-21T04:16:35.062Z,1006.73
2017-01-21T04:17:15.667Z,1006.81
2017-01-21T04:17:56.254Z,1006.95
2017-01-21T04:18:36.836Z,1006.94
2017-01-21T04:19:17.427Z,1006.8
2017-01-21T04:19:58.018Z,1006.91
2017-01-21T04:20:38.606Z,1006.95
2017-01-21T04:21:19.197Z,1006.82
2017-01-21T04:21:59.801Z,1007.01
2017-01-21T04:22:40.398Z,1006.9
2017-01-21T04:23:20.994Z,1006.89
2017-01-21T04:24:01.582Z,1006.99
2017-01-21T04:24:42.180Z,1006.95
2017-01-21T04:25:22.773Z,1007.04
2017-01-21T04:26:03.355Z,1006.98
2017-01-21T04:26:43.944Z,1007
2017-01-21T04:27:24.547Z,1007.06
2017-01-21T04:28:05.131Z,1007.12
2017-01-21T04:28:45.712Z,1007.06
2017-01-21T04:29:26.302Z,1007.09
2017-01-21T04:30:06.893Z,1007.04
2017-01-21T04:30:47.483Z,1007.14
2017-01-21T04:31:28.073Z,1007.1
2017-01-21T04:32:08.673Z,1007.09
2017-01-21T04:32:49.262Z,1007.06
2017-01-21T04:33:29.842Z,1007.03
2017-01-21T04:34:10.417Z,1007.05
2017-01-21T04:34:50.997Z,1007.01
2017-01-21T04:35:31.580Z,1007.06
2017-01-21T04:36:12.163Z,1007.04
2017-01-21T04:36:52.759Z,1007.12
2017-01-21T04:37:33.341Z,1007.11
2017-01-21T04:38:13.947Z,1007.18
2017-01-21T04:38:54.533Z,1007.11
2017-01-21T04:39:35.127Z,1007.19
2017-01-21T04:40:15.715Z,1007.15
2017-01-21T04:40:56.300Z,1007.24
2017-01-21T04:41:36.883Z,1007.39
2017-01-21T04:42:17.479Z,1007.27
2017-01-21T04:42:58.063Z,1007.19
2017-01-21T04:43:38.643Z,1007.22
2017-01-21T04:44:19.253Z,1007.28
2017-01-21T04:44:59.827Z,1007.21
2017-01-21T04:45:40.434Z,1007.1
2017-01-21T04:46:21.026Z,1007.28
2017-01-21T04:47:01.622Z,1007.19
2017-01-21T04:47:42.191Z,1007.16
2017-01-21T04:48:22.767Z,1007.09
2017-01-21T04:49:03.351Z,1007.21
2017-01-21T04:49:43.954Z,1007.27
2017-01-21T04:50:24.529Z,1007.33
2017-01-21T04:51:05.112Z,1007.28
2017-01-21T04:51:45.713Z,1007.08
2017-01-21T04:52:26.294Z,1007.21
2017-01-21T04:53:06.876Z,1007.15
2017-01-21T04:53:47.492Z,1007.15
2017-01-21T04:54:28.102Z,1007.23
2017-01-21T04:55:08.687Z,1007.14
2017-01-21T04:55:49.274Z,1007.17
2017-01-21T04:56:29.861Z,1007.08
2017-01-21T04:57:10.453Z,1007.13
2017-01-21T04:57:51.040Z,1007.14
2017-01-21T04:58:31.626Z,1007.09
2017-01-21T04:59:12.219Z,1007.1
2017-01-21T04:59:52.796Z,1007.1
2017-01-21T05:00:33.385Z,1007.13
2017-01-21T05:01:13.978Z,1007.16
2017-01-21T05:01:54.566Z,1007.15
2017-01-21T05:02:35.147Z,1007.16
2017-01-21T05:03:15.730Z,1007.23
2017-01-21T05:03:56.344Z,1007.19
2017-01-21T05:04:36.933Z,1007.2
2017-01-21T05:05:17.521Z,1007.01
2017-01-21T05:05:58.103Z,1007.08
2017-01-21T05:06:38.699Z,1007.11
2017-01-21T05:07:19.289Z,1007.09
2017-01-21T05:07:59.859Z,1007.14
2017-01-21T05:08:40.446Z,1007.17
2017-01-21T05:09:21.042Z,1007.14
2017-01-21T05:10:01.623Z,1007.18
2017-01-21T05:10:42.205Z,1007.11
2017-01-21T05:11:22.782Z,1006.97
2017-01-21T05:12:03.362Z,1006.93
2017-01-21T05:12:43.946Z,1007.05
2017-01-21T05:13:24.539Z,1006.94
2017-01-21T05:14:05.116Z,1007.01
2017-01-21T05:14:45.701Z,1007
2017-01-21T05:15:26.284Z,1006.92
2017-01-21T05:16:06.877Z,1007.03
2017-01-21T05:16:47.459Z,1007.06
2017-01-21T05:17:28.044Z,1007.04
2017-01-21T05:18:08.628Z,1006.96
2017-01-21T05:18:49.209Z,1006.87
2017-01-21T05:19:29.785Z,1006.88
2017-01-21T05:20:10.363Z,1006.93
2017-01-21T05:20:50.979Z,1006.89
2017-01-21T05:21:31.557Z,1006.86
2017-01-21T05:22:12.129Z,1006.8
2017-01-21T05:22:52.722Z,1006.83
2017-01-21T05:23:33.322Z,1006.84
2017-01-21T05:24:13.903Z,1006.86
2017-01-21T05:24:54.483Z,1006.88
2017-01-21T05:25:35.078Z,1006.87
2017-01-21T05:26:15.665Z,1006.81
2017-01-21T05:26:56.246Z,1007.03
2017-01-21T05:27:36.840Z,1007.09
2017-01-21T05:28:17.423Z,1006.96
2017-01-21T05:28:58.022Z,1007.04
2017-01-21T05:29:38.602Z,1007.05
2017-01-21T05:30:19.195Z,1007.09
2017-01-21T05:30:59.797Z,1007.04
2017-01-21T05:31:40.401Z,1007.12
2017-01-21T05:32:20.990Z,1007.1
2017-01-21T05:33:01.597Z,1007.1
2017-01-21T05:33:42.174Z,1006.99
2017-01-21T05:34:22.757Z,1007.07
2017-01-21T05:35:03.340Z,1007.12
2017-01-21T05:35:43.951Z,1006.91
2017-01-21T05:36:24.530Z,1006.92
2017-01-21T05:37:05.127Z,1006.98
2017-01-21T05:37:45.718Z,1006.97
2017-01-21T05:38:26.337Z,1006.96
2017-01-21T05:39:06.925Z,1007.06
2017-01-21T05:39:47.514Z,1006.88
2017-01-21T05:40:28.107Z,1007.02
2017-01-21T05:41:08.697Z,1006.9
2017-01-21T05:41:49.279Z,1006.95
2017-01-21T05:42:29.861Z,1006.91
2017-01-21T05:43:10.437Z,1006.97
2017-01-21T05:43:51.016Z,1006.88
2017-01-21T05:44:31.614Z,1006.98
2017-01-21T05:45:12.195Z,1006.86
2017-01-21T05:45:52.782Z,1006.85
2017-01-21T05:46:33.370Z,1006.86
2017-01-21T05:47:13.975Z,1006.73
2017-01-21T05:47:54.573Z,1006.93
2017-01-21T05:48:35.182Z,1006.83
2017-01-21T05:49:15.777Z,1006.91
2017-01-21T05:49:56.385Z,1006.93
2017-01-21T05:50:36.980Z,1006.9
2017-01-21T05:51:17.562Z,1006.95
2017-01-21T05:51:58.139Z,1006.87
2017-01-21T05:52:38.739Z,1006.7
2017-01-21T05:53:19.312Z,1006.95
2017-01-21T05:53:59.894Z,1006.95
2017-01-21T05:54:40.494Z,1007
2017-01-21T05:55:21.079Z,1007.09
2017-01-21T05:56:01.671Z,1007.01
2017-01-21T05:56:42.255Z,1006.91
2017-01-21T05:57:22.847Z,1006.84
2017-01-21T05:58:03.437Z,1006.82
2017-01-21T05:58:44.028Z,1006.86
2017-01-21T05:59:24.613Z,1006.94
2017-01-21T06:00:05.203Z,1006.86
2017-01-21T06:00:45.796Z,1006.84
2017-01-21T06:01:26.393Z,1006.93
2017-01-21T06:02:06.978Z,1006.91
2017-01-21T06:02:47.563Z,1006.79
2017-01-21T06:03:28.161Z,1006.95
2017-01-21T06:04:08.751Z,1006.73
2017-01-21T06:04:49.327Z,1006.87
2017-01-21T06:05:29.924Z,1006.85
2017-01-21T06:06:10.518Z,1006.89
2017-01-21T06:06:51.112Z,1006.83
2017-01-21T06:07:31.681Z,1006.88
2017-01-21T06:08:12.287Z,1006.76
2017-01-21T06:08:52.873Z,1006.91
2017-01-21T06:09:33.447Z,1006.89
2017-01-21T06:10:14.034Z,1006.74
2017-01-21T06:10:54.622Z,1006.76
2017-01-21T06:11:35.227Z,1006.84
2017-01-21T06:12:15.823Z,1006.89
2017-01-21T06:12:56.402Z,1006.72
2017-01-21T06:13:36.998Z,1006.72
2017-01-21T06:14:17.591Z,1006.84
2017-01-21T06:14:58.184Z,1006.87
2017-01-21T06:15:38.775Z,1006.91
2017-01-21T06:16:19.363Z,1006.94
2017-01-21T06:16:59.972Z,1006.85
2017-01-21T06:17:40.553Z,1006.63
2017-01-21T06:18:21.142Z,1006.58
2017-01-21T06:19:01.722Z,1006.84
2017-01-21T06:19:42.304Z,1006.87
2017-01-21T06:20:22.903Z,1006.97
2017-01-21T06:21:03.482Z,1006.84
2017-01-21T06:21:44.060Z,1006.86
2017-01-21T06:22:24.653Z,1006.87
2017-01-21T06:23:05.263Z,1006.99
2017-01-21T06:23:45.865Z,1006.64
2017-01-21T06:24:26.467Z,1006.97
2017-01-21T06:25:07.056Z,1006.95
2017-01-21T06:25:47.632Z,1007.01
2017-01-21T06:26:28.225Z,1006.98
2017-01-21T06:27:08.811Z,1006.96
2017-01-21T06:27:49.387Z,1006.94
2017-01-21T06:28:29.980Z,1006.79
2017-01-21T06:29:10.584Z,1006.68
2017-01-21T06:29:51.174Z,1006.98
2017-01-21T06:30:31.789Z,1007.03
2017-01-21T06:31:12.381Z,1007.05
2017-01-21T06:31:52.986Z,1007.05
2017-01-21T06:32:33.577Z,1006.94
2017-01-21T06:33:14.160Z,1006.95
2017-01-21T06:33:54.754Z,1006.85
2017-01-21T06:34:35.348Z,1006.94
2017-01-21T06:35:15.939Z,1006.82
2017-01-21T06:35:56.521Z,1006.84
2017-01-21T06:36:37.100Z,1006.93
2017-01-21T06:37:17.699Z,1006.91
2017-01-21T06:37:58.296Z,1006.99
2017-01-21T06:38:38.901Z,1006.95
2017-01-21T06:39:19.502Z,1006.94
2017-01-21T06:40:00.112Z,1006.71
2017-01-21T06:40:40.712Z,1006.95
2017-01-21T06:41:21.287Z,1007.07
2017-01-21T06:42:01.873Z,1006.91
2017-01-21T06:42:42.466Z,1006.88
2017-01-21T06:43:23.036Z,1006.75
2017-01-21T06:44:03.625Z,1007.04
2017-01-21T06:44:44.233Z,1006.81
2017-01-21T06:45:24.832Z,1006.79
2017-01-21T06:46:05.418Z,1006.89
2017-01-21T06:46:46.021Z,1006.74
2017-01-21T06:47:26.620Z,1006.98
2017-01-21T06:48:07.224Z,1006.91
2017-01-21T06:48:47.817Z,1006.9
2017-01-21T06:49:28.395Z,1006.95
2017-01-21T06:50:08.989Z,1006.98
2017-01-21T06:50:49.587Z,1006.83
2017-01-21T06:51:30.168Z,1006.97
2017-01-21T06:52:10.745Z,1006.95
2017-01-21T06:52:51.348Z,1006.82
2017-01-21T06:53:31.948Z,1006.88
2017-01-21T06:54:12.543Z,1006.92
2017-01-21T06:54:53.122Z,1006.84
2017-01-21T06:55:33.703Z,1006.95
2017-01-21T06:56:14.297Z,1006.96
2017-01-21T06:56:54.904Z,1006.85
2017-01-21T06:57:35.521Z,1006.93
2017-01-21T06:58:16.112Z,1006.92
2017-01-21T06:58:56.713Z,1006.89
2017-01-21T06:59:37.301Z,1006.99
2017-01-21T07:00:17.874Z,1007.04
2017-01-21T07:00:58.456Z,1007
2017-01-21T07:01:39.044Z,1007.08
2017-01-21T07:02:19.627Z,1007.01
2017-01-21T07:03:00.213Z,1007.04
2017-01-21T07:03:41.485Z,1007.01
2017-01-21T07:04:22.081Z,1007.01
2017-01-21T07:05:02.681Z,1006.97
2017-01-21T07:05:43.254Z,1006.98
2017-01-21T07:06:23.847Z,1007.02
2017-01-21T07:07:04.448Z,1007.06
2017-01-21T07:07:45.041Z,1007.02
2017-01-21T07:08:25.638Z,1007.02
2017-01-21T07:09:06.244Z,1007.05
2017-01-21T07:09:46.838Z,1007.06
2017-01-21T07:10:27.415Z,1007.1
2017-01-21T07:11:07.998Z,1007.07
2017-01-21T07:11:48.577Z,1007.03
2017-01-21T07:12:29.166Z,1007.13
2017-01-21T07:13:09.763Z,1007.15
2017-01-21T07:13:50.341Z,1007.1
2017-01-21T07:14:30.930Z,1007.1
2017-01-21T07:15:11.521Z,1006.99
2017-01-21T07:15:52.094Z,1007
2017-01-21T07:16:32.693Z,1007.07
2017-01-21T07:17:13.276Z,1007.08
2017-01-21T07:17:53.868Z,1006.99
2017-01-21T07:18:34.467Z,1006.93
2017-01-21T07:19:15.050Z,1006.91
2017-01-21T07:19:55.645Z,1006.83
2017-01-21T07:20:36.236Z,1006.96
2017-01-21T07:21:16.837Z,1007.03
2017-01-21T07:21:57.445Z,1007.05
2017-01-21T07:22:38.030Z,1007.03
2017-01-21T07:23:18.644Z,1007.01
2017-01-21T07:23:59.237Z,1007.08
2017-01-21T07:24:39.821Z,1006.96
2017-01-21T07:25:20.407Z,1007.12
2017-01-21T07:26:01.000Z,1007.05
2017-01-21T07:26:41.590Z,1007.1
2017-01-21T07:27:22.185Z,1006.92
2017-01-21T07:28:02.777Z,1006.96
2017-01-21T07:28:43.361Z,1007.1
2017-01-21T07:29:23.959Z,1007.03
2017-01-21T07:30:04.547Z,1006.99
2017-01-21T07:30:45.160Z,1007.06
2017-01-21T07:31:25.752Z,1007.1
2017-01-21T07:32:06.337Z,1007.06
2017-01-21T07:32:46.915Z,1007.03
2017-01-21T07:33:27.501Z,1007.05
2017-01-21T07:34:08.085Z,1007.09
2017-01-21T07:34:48.671Z,1006.95
2017-01-21T07:35:29.254Z,1006.99
2017-01-21T07:36:09.840Z,1006.92
2017-01-21T07:36:50.424Z,1006.99
2017-01-21T07:37:31.037Z,1006.98
2017-01-21T07:38:11.623Z,1006.9
2017-01-21T07:38:52.231Z,1006.86
2017-01-21T07:39:32.827Z,1006.96
2017-01-21T07:40:13.417Z,1006.93
2017-01-21T07:40:54.011Z,1006.92
2017-01-21T07:41:34.616Z,1006.72
2017-01-21T07:42:15.198Z,1006.67
2017-01-21T07:42:55.784Z,1006.7
2017-01-21T07:43:36.376Z,1006.68
2017-01-21T07:44:16.974Z,1006.76
2017-01-21T07:44:57.579Z,1006.81
2017-01-21T07:45:38.177Z,1006.82
2017-01-21T07:46:18.765Z,1006.88
2017-01-21T07:46:59.349Z,1006.68
2017-01-21T07:47:39.930Z,1006.71
2017-01-21T07:48:20.507Z,1006.49
2017-01-21T07:49:01.092Z,1006.64
2017-01-21T07:49:41.673Z,1006.72
2017-01-21T07:50:22.260Z,1006.64
2017-01-21T07:51:02.848Z,1006.7
2017-01-21T07:51:43.424Z,1006.7
2017-01-21T07:52:24.022Z,1006.7
2017-01-21T07:53:04.613Z,1006.71
2017-01-21T07:53:45.183Z,1006.7
2017-01-21T07:54:25.774Z,1006.76
2017-01-21T07:55:06.373Z,1006.69
2017-01-21T07:55:46.960Z,1006.74
2017-01-21T07:56:27.549Z,1006.64
2017-01-21T07:57:08.133Z,1006.74
2017-01-21T07:57:48.733Z,1006.79
2017-01-21T07:58:29.333Z,1006.81
2017-01-21T07:59:09.928Z,1006.8
2017-01-21T07:59:50.518Z,1006.8
2017-01-21T08:00:31.117Z,1006.67
2017-01-21T08:01:11.724Z,1006.72
2017-01-21T08:01:52.291Z,1006.77
2017-01-21T08:02:32.870Z,1006.8
2017-01-21T08:03:13.454Z,1006.75
2017-01-21T08:03:54.065Z,1006.77
2017-01-21T08:04:34.659Z,1006.7
2017-01-21T08:05:15.240Z,1006.74
2017-01-21T08:05:55.833Z,1006.63
2017-01-21T08:06:36.419Z,1006.67
2017-01-21T08:07:17.005Z,1006.56
2017-01-21T08:07:57.607Z,1006.58
2017-01-21T08:08:38.194Z,1006.44
2017-01-21T08:09:18.792Z,1006.42
2017-01-21T08:09:59.369Z,1006.69
2017-01-21T08:10:40.525Z,1006.52
2017-01-21T08:11:21.105Z,1006.37
2017-01-21T08:12:01.681Z,1006.43
2017-01-21T08:12:42.265Z,1006.57